createdAt,value
2023-03-14T00:00:16.080Z,1
2023-03-14T00:00:46.080Z,1
2023-03-14T00:01:16.081Z,0.98
2023-03-14T00:01:46.090Z,0.97
2023-03-14T00:02:16.181Z,0.97
2023-03-14T00:02:46.135Z,0.98
2023-03-14T00:03:16.092Z,0.98
2023-03-14T00:03:46.089Z,0.98
2023-03-14T00:04:16.090Z,0.99
2023-03-14T00:04:46.085Z,0.98
2023-03-14T00:05:16.085Z,0.98
2023-03-14T00:05:46.100Z,0.94
2023-03-14T00:06:16.080Z,0.9
2023-03-14T00:06:46.079Z,0.85
2023-03-14T00:07:16.084Z,0.82
2023-03-14T00:07:46.084Z,0.78
2023-03-14T00:08:16.084Z,0.7
2023-03-14T00:08:46.088Z,0.63
2023-03-14T00:09:16.087Z,0.58
2023-03-14T00:09:46.084Z,0.57
2023-03-14T00:10:16.083Z,0.61
2023-03-14T00:10:46.080Z,0.66
2023-03-14T00:11:16.085Z,0.7
2023-03-14T00:11:46.085Z,0.66
2023-03-14T00:12:16.082Z,0.6
2023-03-14T00:12:46.080Z,0.59
2023-03-14T00:13:16.084Z,0.53
2023-03-14T00:13:46.088Z,0.53
2023-03-14T00:14:16.087Z,0.57
2023-03-14T00:14:46.114Z,0.6
2023-03-14T00:15:16.118Z,0.65
2023-03-14T00:15:46.101Z,0.71
2023-03-14T00:16:16.186Z,0.79
2023-03-14T00:16:46.088Z,0.85
2023-03-14T00:17:16.081Z,0.88
2023-03-14T00:17:46.109Z,0.86
2023-03-14T00:18:16.086Z,0.87
2023-03-14T00:18:46.093Z,0.89
2023-03-14T00:19:16.129Z,0.92
2023-03-14T00:19:46.089Z,0.93
2023-03-14T00:20:16.086Z,0.9
2023-03-14T00:20:46.084Z,0.9
2023-03-14T00:21:16.090Z,0.9
2023-03-14T00:21:46.091Z,0.9
2023-03-14T00:22:16.082Z,0.87
2023-03-14T00:22:46.085Z,0.76
2023-03-14T00:23:16.086Z,0.74
2023-03-14T00:23:46.088Z,0.69
2023-03-14T00:24:16.090Z,0.69
2023-03-14T00:24:46.089Z,0.66
2023-03-14T00:25:16.080Z,0.61
2023-03-14T00:25:46.093Z,0.59
2023-03-14T00:26:16.081Z,0.55
2023-03-14T00:26:46.088Z,0.51
2023-03-14T00:27:16.080Z,0.49
2023-03-14T00:27:46.084Z,0.5
2023-03-14T00:28:16.088Z,0.5
2023-03-14T00:28:46.090Z,0.5
2023-03-14T00:29:16.082Z,0.51
2023-03-14T00:29:46.088Z,0.55
2023-03-14T00:30:16.099Z,0.6
2023-03-14T00:30:46.086Z,0.61
2023-03-14T00:31:16.133Z,0.61
2023-03-14T00:31:46.086Z,0.64
2023-03-14T00:32:16.082Z,0.65
2023-03-14T00:32:46.137Z,0.67
2023-03-14T00:33:16.080Z,0.68
2023-03-14T00:33:46.095Z,0.68
2023-03-14T00:34:16.090Z,0.67
2023-03-14T00:34:46.087Z,0.68
2023-03-14T00:35:16.082Z,0.69
2023-03-14T00:35:46.097Z,0.72
2023-03-14T00:36:16.110Z,0.75
2023-03-14T00:36:46.096Z,0.77
2023-03-14T00:37:16.079Z,0.77
2023-03-14T00:37:46.082Z,0.76
2023-03-14T00:38:16.084Z,0.73
2023-03-14T00:38:46.089Z,0.73
2023-03-14T00:39:16.089Z,0.73
2023-03-14T00:39:46.087Z,0.74
2023-03-14T00:40:16.080Z,0.75
2023-03-14T00:40:46.088Z,0.76
2023-03-14T00:41:16.095Z,0.76
2023-03-14T00:41:46.080Z,0.73
2023-03-14T00:42:16.087Z,0.71
2023-03-14T00:42:46.081Z,0.68
2023-03-14T00:43:16.081Z,0.67
2023-03-14T00:43:46.094Z,0.61
2023-03-14T00:44:16.082Z,0.58
2023-03-14T00:44:46.091Z,0.55
2023-03-14T00:45:16.078Z,0.55
2023-03-14T00:45:46.079Z,0.55
2023-03-14T00:46:16.104Z,0.52
2023-03-14T00:46:46.096Z,0.51
2023-03-14T00:47:16.080Z,0.52
2023-03-14T00:47:46.100Z,0.53
2023-03-14T00:48:16.083Z,0.55
2023-03-14T00:48:46.083Z,0.54
2023-03-14T00:49:16.087Z,0.44
2023-03-14T00:49:46.083Z,0.37
2023-03-14T00:50:16.077Z,0.36
2023-03-14T00:50:46.082Z,0.37
2023-03-14T00:51:16.269Z,0.39
2023-03-14T00:51:46.086Z,0.42
2023-03-14T00:52:16.085Z,0.45
2023-03-14T00:52:46.089Z,0.46
2023-03-14T00:53:16.083Z,0.46
2023-03-14T00:53:46.095Z,0.44
2023-03-14T00:54:16.093Z,0.46
2023-03-14T00:54:46.083Z,0.49
2023-03-14T00:55:16.084Z,0.51
2023-03-14T00:55:46.086Z,0.52
2023-03-14T00:56:16.093Z,0.52
2023-03-14T00:56:46.079Z,0.51
2023-03-14T00:57:16.081Z,0.52
2023-03-14T00:57:46.087Z,0.51
2023-03-14T00:58:16.086Z,0.52
2023-03-14T00:58:46.082Z,0.54
2023-03-14T00:59:16.084Z,0.55
2023-03-14T00:59:46.082Z,0.56
2023-03-14T01:00:16.082Z,0.56
2023-03-14T01:00:46.083Z,0.57
2023-03-14T01:01:16.082Z,0.57
2023-03-14T01:01:46.145Z,0.56
2023-03-14T01:02:16.081Z,0.55
2023-03-14T01:02:46.153Z,0.54
2023-03-14T01:03:16.227Z,0.5
2023-03-14T01:03:46.082Z,0.45
2023-03-14T01:04:16.083Z,0.4
2023-03-14T01:04:46.084Z,0.37
2023-03-14T01:05:16.086Z,0.38
2023-03-14T01:05:46.082Z,0.36
2023-03-14T01:06:16.096Z,0.35
2023-03-14T01:06:46.097Z,0.31
2023-03-14T01:07:16.133Z,0.27
2023-03-14T01:07:46.085Z,0.22
2023-03-14T01:08:16.088Z,0.21
2023-03-14T01:08:46.090Z,0.22
2023-03-14T01:09:16.084Z,0.25
2023-03-14T01:09:46.088Z,0.27
2023-03-14T01:10:16.088Z,0.29
2023-03-14T01:10:46.092Z,0.32
2023-03-14T01:11:16.089Z,0.35
2023-03-14T01:11:46.096Z,0.38
2023-03-14T01:12:16.102Z,0.41
2023-03-14T01:12:46.094Z,0.43
2023-03-14T01:13:16.093Z,0.45
2023-03-14T01:13:46.091Z,0.47
2023-03-14T01:14:16.084Z,0.5
2023-03-14T01:14:46.085Z,0.5
2023-03-14T01:15:16.086Z,0.48
2023-03-14T01:15:46.135Z,0.47
2023-03-14T01:16:16.148Z,0.46
2023-03-14T01:16:46.088Z,0.43
2023-03-14T01:17:16.127Z,0.38
2023-03-14T01:17:46.097Z,0.34
2023-03-14T01:18:16.096Z,0.29
2023-03-14T01:18:46.099Z,0.27
2023-03-14T01:19:16.086Z,0.25
2023-03-14T01:19:46.127Z,0.28
2023-03-14T01:20:16.099Z,0.31
2023-03-14T01:20:46.090Z,0.29
2023-03-14T01:21:16.092Z,0.3
2023-03-14T01:21:46.100Z,0.32
2023-03-14T01:22:16.088Z,0.3
2023-03-14T01:22:46.096Z,0.28
2023-03-14T01:23:16.088Z,0.23
2023-03-14T01:23:46.093Z,0.23
2023-03-14T01:24:16.093Z,0.24
2023-03-14T01:24:46.094Z,0.27
2023-03-14T01:25:16.090Z,0.29
2023-03-14T01:25:46.087Z,0.29
2023-03-14T01:26:16.087Z,0.26
2023-03-14T01:26:46.090Z,0.24
2023-03-14T01:27:16.088Z,0.21
2023-03-14T01:27:46.089Z,0.14
2023-03-14T01:28:16.091Z,0.1
2023-03-14T01:28:46.088Z,0.09
2023-03-14T01:29:16.091Z,0.12
2023-03-14T01:29:46.088Z,0.15
2023-03-14T01:30:16.090Z,0.21
2023-03-14T01:30:46.091Z,0.27
2023-03-14T01:31:16.154Z,0.33
2023-03-14T01:31:46.144Z,0.38
2023-03-14T01:32:16.123Z,0.42
2023-03-14T01:32:46.213Z,0.45
2023-03-14T01:33:16.092Z,0.45
2023-03-14T01:33:46.089Z,0.39
2023-03-14T01:34:16.110Z,0.36
2023-03-14T01:34:46.089Z,0.36
2023-03-14T01:35:16.092Z,0.36
2023-03-14T01:35:46.127Z,0.34
2023-03-14T01:36:16.090Z,0.3
2023-03-14T01:36:46.088Z,0.26
2023-03-14T01:37:16.089Z,0.26
2023-03-14T01:37:46.093Z,0.27
2023-03-14T01:38:16.106Z,0.25
2023-03-14T01:38:46.104Z,0.25
2023-03-14T01:39:16.096Z,0.25
2023-03-14T01:39:46.091Z,0.23
2023-03-14T01:40:16.095Z,0.22
2023-03-14T01:40:46.098Z,0.21
2023-03-14T01:41:16.093Z,0.2
2023-03-14T01:41:46.088Z,0.2
2023-03-14T01:42:16.096Z,0.17
2023-03-14T01:42:46.090Z,0.14
2023-03-14T01:43:16.095Z,0.13
2023-03-14T01:43:46.102Z,0.13
2023-03-14T01:44:16.090Z,0.15
2023-03-14T01:44:46.090Z,0.14
2023-03-14T01:45:16.092Z,0.11
2023-03-14T01:45:46.195Z,0.04
2023-03-14T01:46:16.126Z,0.02
2023-03-14T01:46:46.109Z,0.02
2023-03-14T01:47:16.092Z,0.02
2023-03-14T01:47:46.092Z,0.02
2023-03-14T01:48:16.089Z,0
2023-03-14T01:48:46.104Z,-0.06
2023-03-14T01:49:16.097Z,-0.05
2023-03-14T01:49:46.095Z,-0.03
2023-03-14T01:50:16.089Z,0
2023-03-14T01:50:46.098Z,-0.04
2023-03-14T01:51:16.093Z,-0.05
2023-03-14T01:51:46.096Z,-0.05
2023-03-14T01:52:16.093Z,-0.05
2023-03-14T01:52:46.096Z,-0.07
2023-03-14T01:53:16.090Z,-0.06
2023-03-14T01:53:46.092Z,-0.01
2023-03-14T01:54:16.105Z,0.03
2023-03-14T01:54:46.103Z,0.06
2023-03-14T01:55:16.106Z,0.08
2023-03-14T01:55:46.099Z,0.1
2023-03-14T01:56:16.105Z,0.11
2023-03-14T01:56:46.105Z,0.1
2023-03-14T01:57:16.123Z,0.08
2023-03-14T01:57:46.116Z,0.06
2023-03-14T01:58:16.101Z,0.04
2023-03-14T01:58:46.108Z,0.04
2023-03-14T01:59:16.106Z,-0.01
2023-03-14T01:59:46.098Z,-0.09
2023-03-14T02:00:16.100Z,-0.11
2023-03-14T02:00:46.122Z,-0.09
2023-03-14T02:01:16.144Z,-0.07
2023-03-14T02:01:46.104Z,-0.05
2023-03-14T02:02:16.095Z,-0.07
2023-03-14T02:02:46.128Z,-0.12
2023-03-14T02:03:16.100Z,-0.11
2023-03-14T02:03:46.113Z,-0.11
2023-03-14T02:04:16.102Z,-0.14
2023-03-14T02:04:46.105Z,-0.15
2023-03-14T02:05:16.094Z,-0.11
2023-03-14T02:05:46.093Z,-0.07
2023-03-14T02:06:16.093Z,-0.06
2023-03-14T02:06:46.099Z,-0.06
2023-03-14T02:07:16.091Z,-0.04
2023-03-14T02:07:46.095Z,-0.05
2023-03-14T02:08:16.093Z,-0.08
2023-03-14T02:08:46.093Z,-0.11
2023-03-14T02:09:16.094Z,-0.13
2023-03-14T02:09:46.091Z,-0.12
2023-03-14T02:10:16.093Z,-0.12
2023-03-14T02:10:46.109Z,-0.08
2023-03-14T02:11:16.097Z,-0.03
2023-03-14T02:11:46.095Z,0.01
2023-03-14T02:12:16.090Z,-0.02
2023-03-14T02:12:46.092Z,-0.07
2023-03-14T02:13:16.091Z,-0.14
2023-03-14T02:13:46.090Z,-0.18
2023-03-14T02:14:16.091Z,-0.22
2023-03-14T02:14:46.093Z,-0.25
2023-03-14T02:15:16.102Z,-0.27
2023-03-14T02:15:46.090Z,-0.28
2023-03-14T02:16:16.132Z,-0.27
2023-03-14T02:16:46.201Z,-0.25
2023-03-14T02:17:16.088Z,-0.22
2023-03-14T02:17:46.087Z,-0.19
2023-03-14T02:18:16.087Z,-0.14
2023-03-14T02:18:46.089Z,-0.08
2023-03-14T02:19:16.090Z,-0.03
2023-03-14T02:19:46.093Z,0
2023-03-14T02:20:16.093Z,0.02
2023-03-14T02:20:46.107Z,-0.02
2023-03-14T02:21:16.092Z,-0.03
2023-03-14T02:21:46.089Z,-0.08
2023-03-14T02:22:16.087Z,-0.09
2023-03-14T02:22:46.084Z,-0.12
2023-03-14T02:23:16.085Z,-0.15
2023-03-14T02:23:46.106Z,-0.16
2023-03-14T02:24:16.085Z,-0.15
2023-03-14T02:24:46.084Z,-0.14
2023-03-14T02:25:16.096Z,-0.13
2023-03-14T02:25:46.096Z,-0.14
2023-03-14T02:26:16.085Z,-0.15
2023-03-14T02:26:46.086Z,-0.15
2023-03-14T02:27:16.083Z,-0.15
2023-03-14T02:27:46.083Z,-0.14
2023-03-14T02:28:16.090Z,-0.16
2023-03-14T02:28:46.094Z,-0.14
2023-03-14T02:29:16.090Z,-0.11
2023-03-14T02:29:46.091Z,-0.08
2023-03-14T02:30:16.097Z,-0.07
2023-03-14T02:30:46.091Z,-0.06
2023-03-14T02:31:16.183Z,-0.04
2023-03-14T02:31:46.166Z,-0.02
2023-03-14T02:32:16.084Z,-0.02
2023-03-14T02:32:46.144Z,-0.03
2023-03-14T02:33:18.165Z,-0.06
2023-03-14T02:33:47.970Z,-0.07
2023-03-14T02:34:16.102Z,-0.1
2023-03-14T02:34:46.093Z,-0.15
2023-03-14T02:35:16.088Z,-0.19
2023-03-14T02:35:46.106Z,-0.22
2023-03-14T02:36:16.137Z,-0.23
2023-03-14T02:36:46.084Z,-0.23
2023-03-14T02:37:16.089Z,-0.28
2023-03-14T02:37:46.126Z,-0.41
2023-03-14T02:38:16.094Z,-0.49
2023-03-14T02:38:46.086Z,-0.54
2023-03-14T02:39:16.080Z,-0.54
2023-03-14T02:39:46.087Z,-0.53
2023-03-14T02:40:16.090Z,-0.53
2023-03-14T02:40:46.109Z,-0.55
2023-03-14T02:41:16.087Z,-0.51
2023-03-14T02:41:46.135Z,-0.47
2023-03-14T02:42:16.084Z,-0.48
2023-03-14T02:42:46.092Z,-0.48
2023-03-14T02:43:16.096Z,-0.52
2023-03-14T02:43:46.085Z,-0.55
2023-03-14T02:44:16.113Z,-0.58
2023-03-14T02:44:46.092Z,-0.58
2023-03-14T02:45:16.081Z,-0.57
2023-03-14T02:45:46.147Z,-0.58
2023-03-14T02:46:16.132Z,-0.6
2023-03-14T02:46:46.107Z,-0.65
2023-03-14T02:47:16.090Z,-0.67
2023-03-14T02:47:46.086Z,-0.68
2023-03-14T02:48:16.113Z,-0.68
2023-03-14T02:48:46.092Z,-0.69
2023-03-14T02:49:16.089Z,-0.65
2023-03-14T02:49:46.090Z,-0.61
2023-03-14T02:50:16.087Z,-0.56
2023-03-14T02:50:46.080Z,-0.54
2023-03-14T02:51:16.098Z,-0.62
2023-03-14T02:51:46.103Z,-0.62
2023-03-14T02:52:16.085Z,-0.64
2023-03-14T02:52:46.084Z,-0.6
2023-03-14T02:53:16.117Z,-0.57
2023-03-14T02:53:46.098Z,-0.54
2023-03-14T02:54:16.102Z,-0.52
2023-03-14T02:54:46.086Z,-0.49
2023-03-14T02:55:16.091Z,-0.46
2023-03-14T02:55:46.085Z,-0.42
2023-03-14T02:56:16.081Z,-0.44
2023-03-14T02:56:46.093Z,-0.49
2023-03-14T02:57:16.084Z,-0.53
2023-03-14T02:57:46.086Z,-0.54
2023-03-14T02:58:16.085Z,-0.51
2023-03-14T02:58:46.089Z,-0.51
2023-03-14T02:59:16.093Z,-0.49
2023-03-14T02:59:46.092Z,-0.46
2023-03-14T03:00:16.089Z,-0.42
2023-03-14T03:00:46.098Z,-0.44
2023-03-14T03:01:16.153Z,-0.42
2023-03-14T03:01:46.089Z,-0.39
2023-03-14T03:02:16.087Z,-0.35
2023-03-14T03:02:46.080Z,-0.31
2023-03-14T03:03:16.138Z,-0.3
2023-03-14T03:03:46.156Z,-0.32
2023-03-14T03:04:16.081Z,-0.31
2023-03-14T03:04:46.079Z,-0.29
2023-03-14T03:05:16.083Z,-0.28
2023-03-14T03:05:46.082Z,-0.29
2023-03-14T03:06:16.084Z,-0.26
2023-03-14T03:06:46.083Z,-0.25
2023-03-14T03:07:16.082Z,-0.29
2023-03-14T03:07:46.082Z,-0.37
2023-03-14T03:08:16.083Z,-0.39
2023-03-14T03:08:46.085Z,-0.43
2023-03-14T03:09:16.088Z,-0.43
2023-03-14T03:09:46.094Z,-0.43
2023-03-14T03:10:16.087Z,-0.39
2023-03-14T03:10:46.082Z,-0.37
2023-03-14T03:11:16.080Z,-0.29
2023-03-14T03:11:46.087Z,-0.26
2023-03-14T03:12:16.086Z,-0.23
2023-03-14T03:12:46.090Z,-0.26
2023-03-14T03:13:16.123Z,-0.24
2023-03-14T03:13:46.088Z,-0.22
2023-03-14T03:14:16.080Z,-0.23
2023-03-14T03:14:46.081Z,-0.2
2023-03-14T03:15:16.089Z,-0.18
2023-03-14T03:15:46.096Z,-0.14
2023-03-14T03:16:16.196Z,-0.13
2023-03-14T03:16:46.204Z,-0.12
2023-03-14T03:17:16.081Z,-0.16
2023-03-14T03:17:46.080Z,-0.17
2023-03-14T03:18:16.079Z,-0.18
2023-03-14T03:18:46.082Z,-0.15
2023-03-14T03:19:16.088Z,-0.11
2023-03-14T03:19:46.108Z,-0.09
2023-03-14T03:20:16.085Z,-0.07
2023-03-14T03:20:46.091Z,-0.09
2023-03-14T03:21:16.089Z,-0.08
2023-03-14T03:21:46.088Z,-0.13
2023-03-14T03:22:16.084Z,-0.18
2023-03-14T03:22:46.086Z,-0.2
2023-03-14T03:23:16.091Z,-0.16
2023-03-14T03:23:46.116Z,-0.11
2023-03-14T03:24:16.086Z,-0.1
2023-03-14T03:24:46.088Z,-0.06
2023-03-14T03:25:16.085Z,-0.03
2023-03-14T03:25:46.087Z,0.04
2023-03-14T03:26:16.097Z,0.13
2023-03-14T03:26:46.088Z,0.22
2023-03-14T03:27:16.098Z,0.3
2023-03-14T03:27:46.095Z,0.39
2023-03-14T03:28:16.109Z,0.44
2023-03-14T03:28:46.106Z,0.5
2023-03-14T03:29:16.092Z,0.58
2023-03-14T03:29:46.091Z,0.66
2023-03-14T03:30:16.098Z,0.73
2023-03-14T03:30:46.118Z,0.74
2023-03-14T03:31:16.176Z,0.71
2023-03-14T03:31:46.092Z,0.65
2023-03-14T03:32:16.093Z,0.53
2023-03-14T03:32:46.136Z,0.5
2023-03-14T03:33:16.088Z,0.5
2023-03-14T03:33:46.090Z,0.46
2023-03-14T03:34:16.092Z,0.45
2023-03-14T03:34:46.091Z,0.4
2023-03-14T03:35:16.099Z,0.42
2023-03-14T03:35:46.159Z,0.43
2023-03-14T03:36:16.093Z,0.45
2023-03-14T03:36:46.091Z,0.44
2023-03-14T03:37:16.089Z,0.44
2023-03-14T03:37:46.115Z,0.47
2023-03-14T03:38:16.096Z,0.47
2023-03-14T03:38:46.099Z,0.5
2023-03-14T03:39:16.094Z,0.54
2023-03-14T03:39:46.090Z,0.64
2023-03-14T03:40:16.098Z,0.76
2023-03-14T03:40:46.099Z,0.83
2023-03-14T03:41:16.101Z,0.73
2023-03-14T03:41:46.109Z,0.65
2023-03-14T03:42:16.102Z,0.65
2023-03-14T03:42:46.106Z,0.78
2023-03-14T03:43:16.108Z,0.96
2023-03-14T03:43:46.095Z,1.15
2023-03-14T03:44:16.097Z,1.3
2023-03-14T03:44:46.098Z,1.37
2023-03-14T03:45:16.100Z,1.35
2023-03-14T03:45:46.243Z,1.27
2023-03-14T03:46:16.180Z,1.12
2023-03-14T03:46:46.131Z,0.99
2023-03-14T03:47:16.094Z,0.93
2023-03-14T03:47:46.095Z,0.95
2023-03-14T03:48:16.127Z,0.99
2023-03-14T03:48:46.100Z,1.04
2023-03-14T03:49:16.133Z,1.1
2023-03-14T03:49:46.093Z,1
2023-03-14T03:50:16.098Z,0.97
2023-03-14T03:50:46.095Z,1.01
2023-03-14T03:51:16.096Z,1.01
2023-03-14T03:51:46.096Z,1.01
2023-03-14T03:52:16.101Z,1
2023-03-14T03:52:46.098Z,1.1
2023-03-14T03:53:26.976Z,1.21
2023-03-14T03:53:47.004Z,1.31
2023-03-14T03:54:16.097Z,1.39
2023-03-14T03:54:46.103Z,1.44
2023-03-14T03:55:16.094Z,1.49
2023-03-14T03:55:46.106Z,1.56
2023-03-14T03:56:16.101Z,1.6
2023-03-14T03:56:46.101Z,1.62
2023-03-14T03:57:16.104Z,1.68
2023-03-14T03:57:46.094Z,1.72
2023-03-14T03:58:16.097Z,1.71
2023-03-14T03:58:46.095Z,1.62
2023-03-14T03:59:16.094Z,1.58
2023-03-14T03:59:46.096Z,1.59
2023-03-14T04:00:16.098Z,1.6
2023-03-14T04:00:46.103Z,1.58
2023-03-14T04:01:16.092Z,1.6
2023-03-14T04:01:46.102Z,1.63
2023-03-14T04:02:16.147Z,1.65
2023-03-14T04:02:46.169Z,1.69
2023-03-14T04:03:16.101Z,1.62
2023-03-14T04:03:46.122Z,1.54
2023-03-14T04:04:16.204Z,1.5
2023-03-14T04:04:46.126Z,1.42
2023-03-14T04:05:16.096Z,1.34
2023-03-14T04:05:46.097Z,1.32
2023-03-14T04:06:16.215Z,1.26
2023-03-14T04:06:46.130Z,1.19
2023-03-14T04:07:16.098Z,1.2
2023-03-14T04:07:46.097Z,1.2
2023-03-14T04:08:16.091Z,1.24
2023-03-14T04:08:46.099Z,1.3
2023-03-14T04:09:16.095Z,1.35
2023-03-14T04:09:46.100Z,1.44
2023-03-14T04:10:16.111Z,1.48
2023-03-14T04:10:46.128Z,1.45
2023-03-14T04:11:17.268Z,1.42
2023-03-14T04:11:46.120Z,1.46
2023-03-14T04:12:16.097Z,1.52
2023-03-14T04:12:46.097Z,1.59
2023-03-14T04:13:16.100Z,1.73
2023-03-14T04:13:46.100Z,1.85
2023-03-14T04:14:16.098Z,1.87
2023-03-14T04:14:46.099Z,1.84
2023-03-14T04:15:16.104Z,1.82
2023-03-14T04:15:46.142Z,1.86
2023-03-14T04:16:16.177Z,1.98
2023-03-14T04:16:46.111Z,2.11
2023-03-14T04:17:16.100Z,2.19
2023-03-14T04:17:46.094Z,2.26
2023-03-14T04:18:16.099Z,2.33
2023-03-14T04:18:46.099Z,2.37
2023-03-14T04:19:16.104Z,2.4
2023-03-14T04:19:46.095Z,2.39
2023-03-14T04:20:16.103Z,2.35
2023-03-14T04:20:46.100Z,2.31
2023-03-14T04:21:16.103Z,2.28
2023-03-14T04:21:46.100Z,2.31
2023-03-14T04:22:16.098Z,2.39
2023-03-14T04:22:46.096Z,2.33
2023-03-14T04:23:16.099Z,2.23
2023-03-14T04:23:46.097Z,2.24
2023-03-14T04:24:16.138Z,2.21
2023-03-14T04:24:46.144Z,2.24
2023-03-14T04:25:16.159Z,2.24
2023-03-14T04:25:46.109Z,2.31
2023-03-14T04:26:16.097Z,2.4
2023-03-14T04:26:46.109Z,2.42
2023-03-14T04:27:16.097Z,2.33
2023-03-14T04:27:46.103Z,2.33
2023-03-14T04:28:16.098Z,2.36
2023-03-14T04:28:46.094Z,2.46
2023-03-14T04:29:16.098Z,2.58
2023-03-14T04:29:46.110Z,2.65
2023-03-14T04:30:16.097Z,2.67
2023-03-14T04:30:46.100Z,2.63
2023-03-14T04:31:16.194Z,2.62
2023-03-14T04:31:46.102Z,2.65
2023-03-14T04:32:16.096Z,2.71
2023-03-14T04:32:46.211Z,2.77
2023-03-14T04:33:16.094Z,2.87
2023-03-14T04:33:46.235Z,2.98
2023-03-14T04:34:16.096Z,2.96
2023-03-14T04:34:46.096Z,2.82
2023-03-14T04:35:16.115Z,2.72
2023-03-14T04:35:46.195Z,2.71
2023-03-14T04:36:16.101Z,2.8
2023-03-14T04:36:46.111Z,2.86
2023-03-14T04:37:16.100Z,2.86
2023-03-14T04:37:46.092Z,2.75
2023-03-14T04:38:16.096Z,2.75
2023-03-14T04:38:46.099Z,2.83
2023-03-14T04:39:16.093Z,2.92
2023-03-14T04:39:46.098Z,3.05
2023-03-14T04:40:18.599Z,3.09
2023-03-14T04:40:46.093Z,3.14
2023-03-14T04:41:16.104Z,3.18
2023-03-14T04:41:46.101Z,3.33
2023-03-14T04:42:16.095Z,3.51
2023-03-14T04:42:46.100Z,3.61
2023-03-14T04:43:16.092Z,3.62
2023-03-14T04:43:46.097Z,3.7
2023-03-14T04:44:16.096Z,3.58
2023-03-14T04:44:46.097Z,3.47
2023-03-14T04:45:16.097Z,3.57
2023-03-14T04:45:46.109Z,3.88
2023-03-14T04:46:16.132Z,4.38
2023-03-14T04:46:46.270Z,5.01
2023-03-14T04:47:16.099Z,5.59
2023-03-14T04:47:46.105Z,6.14
2023-03-14T04:48:16.093Z,6.64
2023-03-14T04:48:46.100Z,7.42
2023-03-14T04:49:16.096Z,8.38
2023-03-14T04:49:46.098Z,9.28
2023-03-14T04:50:16.108Z,10.33
2023-03-14T04:50:46.101Z,11.18
2023-03-14T04:51:16.106Z,11.64
2023-03-14T04:51:46.100Z,11.71
2023-03-14T04:52:16.098Z,11.86
2023-03-14T04:52:46.114Z,11.83
2023-03-14T04:53:16.103Z,11.96
2023-03-14T04:53:46.096Z,12.19
2023-03-14T04:54:16.096Z,12.41
2023-03-14T04:54:46.096Z,12.52
2023-03-14T04:55:16.100Z,12.92
2023-03-14T04:55:46.098Z,13.43
2023-03-14T04:56:16.099Z,14
2023-03-14T04:56:46.098Z,14.43
2023-03-14T04:57:16.120Z,15.01
2023-03-14T04:57:46.151Z,15.57
2023-03-14T04:58:16.098Z,16.04
2023-03-14T04:58:46.103Z,16.65
2023-03-14T04:59:16.096Z,17.1
2023-03-14T04:59:46.096Z,17.57
2023-03-14T05:00:16.096Z,17.97
2023-03-14T05:00:46.098Z,18.19
2023-03-14T05:01:16.100Z,18.33
2023-03-14T05:01:46.130Z,18.57
2023-03-14T05:02:16.098Z,18.26
2023-03-14T05:02:46.140Z,17.35
2023-03-14T05:03:16.177Z,16.79
2023-03-14T05:03:46.112Z,16.46
2023-03-14T05:04:16.097Z,16.27
2023-03-14T05:04:46.095Z,16.17
2023-03-14T05:05:16.106Z,16.21
2023-03-14T05:05:46.101Z,15.93
2023-03-14T05:06:16.098Z,15.77
2023-03-14T05:06:46.106Z,15.55
2023-03-14T05:07:16.105Z,15.9
2023-03-14T05:07:46.102Z,16.27
2023-03-14T05:08:16.102Z,16.5
2023-03-14T05:08:46.108Z,16.66
2023-03-14T05:09:16.101Z,16.76
2023-03-14T05:09:46.094Z,17.1
2023-03-14T05:10:16.100Z,17.68
2023-03-14T05:10:46.096Z,18.25
2023-03-14T05:11:16.093Z,18.74
2023-03-14T05:11:46.102Z,18.72
2023-03-14T05:12:16.105Z,18.65
2023-03-14T05:12:46.098Z,18.95
2023-03-14T05:13:16.137Z,19.55
2023-03-14T05:13:46.106Z,19.94
2023-03-14T05:14:16.099Z,20.53
2023-03-14T05:14:46.104Z,20.94
2023-03-14T05:15:16.102Z,20.79
2023-03-14T05:15:46.112Z,20.49
2023-03-14T05:16:16.166Z,20.01
2023-03-14T05:16:46.094Z,19.82
2023-03-14T05:17:16.097Z,19.37
2023-03-14T05:17:46.091Z,19.17
2023-03-14T05:18:16.095Z,19.15
2023-03-14T05:18:46.100Z,19.11
2023-03-14T05:19:16.098Z,19.13
2023-03-14T05:19:46.104Z,18.84
2023-03-14T05:20:16.101Z,18.9
2023-03-14T05:20:46.109Z,19.24
2023-03-14T05:21:16.099Z,19
2023-03-14T05:21:46.102Z,19.15
2023-03-14T05:22:16.096Z,19.6
2023-03-14T05:22:46.110Z,19.57
2023-03-14T05:23:16.114Z,19.44
2023-03-14T05:23:46.109Z,19.27
2023-03-14T05:24:16.102Z,19.53
2023-03-14T05:24:46.097Z,19.95
2023-03-14T05:25:16.100Z,20.36
2023-03-14T05:25:46.094Z,20.4
2023-03-14T05:26:16.097Z,20.48
2023-03-14T05:26:46.101Z,20.1
2023-03-14T05:27:16.120Z,20.32
2023-03-14T05:27:46.093Z,20.76
2023-03-14T05:28:16.107Z,21.21
2023-03-14T05:28:46.094Z,21.86
2023-03-14T05:29:16.096Z,22.08
2023-03-14T05:29:46.099Z,21.86
2023-03-14T05:30:16.114Z,21.76
2023-03-14T05:30:46.105Z,21.77
2023-03-14T05:31:16.138Z,21.8
2023-03-14T05:31:46.164Z,21.68
2023-03-14T05:32:16.097Z,21.8
2023-03-14T05:32:46.151Z,21.93
2023-03-14T05:33:16.101Z,21.97
2023-03-14T05:33:46.096Z,21.44
2023-03-14T05:34:16.097Z,20.91
2023-03-14T05:34:46.098Z,20.8
2023-03-14T05:35:16.097Z,20.6
2023-03-14T05:35:46.148Z,20.79
2023-03-14T05:36:16.100Z,20.93
2023-03-14T05:36:46.105Z,20.87
2023-03-14T05:37:17.104Z,20.89
2023-03-14T05:37:46.107Z,20.35
2023-03-14T05:38:16.108Z,20.17
2023-03-14T05:38:46.105Z,20.13
2023-03-14T05:39:16.103Z,19.76
2023-03-14T05:39:46.112Z,19.54
2023-03-14T05:40:16.101Z,19.7
2023-03-14T05:40:46.123Z,20.12
2023-03-14T05:41:16.102Z,21.04
2023-03-14T05:41:46.102Z,21.77
2023-03-14T05:42:16.107Z,21.78
2023-03-14T05:42:46.105Z,21.58
2023-03-14T05:43:16.105Z,21.43
2023-03-14T05:43:46.111Z,21.39
2023-03-14T05:44:16.103Z,21.27
2023-03-14T05:44:46.116Z,21.35
2023-03-14T05:45:16.106Z,21.43
2023-03-14T05:45:46.204Z,21.69
2023-03-14T05:46:16.164Z,21.72
2023-03-14T05:46:46.117Z,21.96
2023-03-14T05:47:16.113Z,22.34
2023-03-14T05:47:46.113Z,22.67
2023-03-14T05:48:16.113Z,22.85
2023-03-14T05:48:46.106Z,23.06
2023-03-14T05:49:16.143Z,23.23
2023-03-14T05:49:46.114Z,23.23
2023-03-14T05:50:16.107Z,23.52
2023-03-14T05:50:46.116Z,23.8
2023-03-14T05:51:16.108Z,24.12
2023-03-14T05:51:46.111Z,24.21
2023-03-14T05:52:16.111Z,24.36
2023-03-14T05:52:46.110Z,24.18
2023-03-14T05:53:16.125Z,24.49
2023-03-14T05:53:46.132Z,24.58
2023-03-14T05:54:16.119Z,25.03
2023-03-14T05:54:46.121Z,25.45
2023-03-14T05:55:16.109Z,25.78
2023-03-14T05:55:46.113Z,26.32
2023-03-14T05:56:16.114Z,26.93
2023-03-14T05:56:46.126Z,27.21
2023-03-14T05:57:16.143Z,27.12
2023-03-14T05:57:46.108Z,26.83
2023-03-14T05:58:16.108Z,26.09
2023-03-14T05:58:46.110Z,25.49
2023-03-14T05:59:16.111Z,24.53
2023-03-14T05:59:46.125Z,23.7
2023-03-14T06:00:16.106Z,22.77
2023-03-14T06:00:46.112Z,22.7
2023-03-14T06:01:16.111Z,23.28
2023-03-14T06:01:46.168Z,24.08
2023-03-14T06:02:16.146Z,24.8
2023-03-14T06:02:46.109Z,25.52
2023-03-14T06:03:16.185Z,25.95
2023-03-14T06:03:46.190Z,26.43
2023-03-14T06:04:16.111Z,26.98
2023-03-14T06:04:46.111Z,27.78
2023-03-14T06:05:16.126Z,28.5
2023-03-14T06:05:46.111Z,28.67
2023-03-14T06:06:16.109Z,28.83
2023-03-14T06:06:46.110Z,28.56
2023-03-14T06:07:16.110Z,28.85
2023-03-14T06:07:46.109Z,28.76
2023-03-14T06:08:17.932Z,28.57
2023-03-14T06:08:46.112Z,28.32
2023-03-14T06:09:16.122Z,27.88
2023-03-14T06:09:46.113Z,27.55
2023-03-14T06:10:16.111Z,27.64
2023-03-14T06:10:46.112Z,27.01
2023-03-14T06:11:16.109Z,26.24
2023-03-14T06:11:46.110Z,25.74
2023-03-14T06:12:16.108Z,25.55
2023-03-14T06:12:46.112Z,25.64
2023-03-14T06:13:16.112Z,25.59
2023-03-14T06:13:46.109Z,26.03
2023-03-14T06:14:16.109Z,26.57
2023-03-14T06:14:46.108Z,27.19
2023-03-14T06:15:16.114Z,27.37
2023-03-14T06:15:46.111Z,28
2023-03-14T06:16:16.147Z,28.76
2023-03-14T06:16:46.144Z,29.16
2023-03-14T06:17:16.118Z,29.28
2023-03-14T06:17:46.113Z,29.14
2023-03-14T06:18:16.124Z,29.31
2023-03-14T06:18:46.111Z,28.84
2023-03-14T06:19:16.114Z,28.56
2023-03-14T06:19:46.199Z,27.86
2023-03-14T06:20:16.128Z,27.1
2023-03-14T06:20:46.115Z,26.9
2023-03-14T06:21:18.322Z,26.38
2023-03-14T06:21:46.123Z,26.02
2023-03-14T06:22:16.117Z,25.3
2023-03-14T06:22:46.120Z,24.65
2023-03-14T06:23:16.123Z,23.97
2023-03-14T06:23:46.142Z,23.49
2023-03-14T06:24:16.122Z,23.68
2023-03-14T06:24:46.112Z,23.59
2023-03-14T06:25:16.127Z,24.2
2023-03-14T06:25:46.115Z,24.87
2023-03-14T06:26:16.116Z,25.27
2023-03-14T06:26:46.114Z,25.34
2023-03-14T06:27:16.125Z,25.72
2023-03-14T06:27:46.115Z,25.81
2023-03-14T06:28:16.120Z,25.95
2023-03-14T06:28:46.117Z,25.96
2023-03-14T06:29:16.120Z,26.52
2023-03-14T06:29:46.120Z,27.41
2023-03-14T06:30:16.128Z,27.74
2023-03-14T06:30:46.149Z,27.91
2023-03-14T06:31:16.164Z,27.62
2023-03-14T06:31:46.121Z,27.8
2023-03-14T06:32:16.118Z,27.84
2023-03-14T06:32:46.175Z,27.58
2023-03-14T06:33:16.130Z,27.86
2023-03-14T06:33:46.116Z,27.92
2023-03-14T06:34:16.129Z,27.46